createdAt,value
2023-01-13T00:02:00.497Z,3.34
2023-01-13T00:04:28.054Z,3.54
2023-01-13T00:06:56.811Z,3.43
2023-01-13T00:09:24.093Z,3.73
2023-01-13T00:11:51.447Z,3.80
2023-01-13T00:14:18.630Z,3.85
2023-01-13T00:16:45.950Z,3.77
2023-01-13T00:19:13.151Z,3.92
2023-01-13T00:21:40.269Z,3.35
2023-01-13T00:24:11.210Z,3.57
2023-01-13T00:26:38.391Z,3.32
2023-01-13T00:29:05.490Z,3.11
2023-01-13T00:31:32.783Z,3.47
2023-01-13T00:34:01.654Z,3.54
2023-01-13T00:36:30.251Z,3.34
2023-01-13T00:38:58.174Z,3.44
2023-01-13T00:41:28.086Z,8.54
2023-01-13T00:43:55.216Z,4.42
2023-01-13T00:46:22.745Z,3.32
2023-01-13T00:48:49.912Z,2.99
2023-01-13T00:51:20.107Z,3.02
2023-01-13T00:53:50.040Z,3.02
2023-01-13T00:56:30.391Z,3.22
2023-01-13T00:59:07.057Z,3.16
2023-01-13T01:01:34.458Z,3.14
2023-01-13T01:04:01.710Z,2.77
2023-01-13T01:06:29.005Z,2.74
2023-01-13T01:08:56.727Z,2.60
2023-01-13T01:11:26.743Z,2.92
2023-01-13T01:13:56.730Z,2.58
2023-01-13T01:16:29.576Z,2.82
2023-01-13T01:18:57.775Z,2.75
2023-01-13T01:21:27.101Z,2.87
2023-01-13T01:23:55.271Z,2.72
2023-01-13T01:26:24.217Z,2.80
2023-01-13T01:28:52.175Z,2.64
2023-01-13T01:31:21.881Z,2.72
2023-01-13T01:33:51.451Z,2.93
2023-01-13T01:36:21.538Z,2.67
2023-01-13T01:38:49.447Z,2.54
2023-01-13T01:41:19.354Z,2.63
2023-01-13T01:43:52.871Z,2.63
2023-01-13T01:46:20.125Z,2.49
2023-01-13T01:48:47.396Z,2.59
2023-01-13T01:51:16.626Z,2.43
2023-01-13T01:53:44.511Z,2.62
2023-01-13T01:56:11.854Z,2.39
2023-01-13T01:58:46.355Z,2.46
2023-01-13T02:01:14.299Z,2.42
2023-01-13T02:03:47.217Z,2.78
2023-01-13T02:06:17.016Z,2.26
2023-01-13T02:08:44.614Z,2.12
2023-01-13T02:11:27.427Z,2.19
2023-01-13T02:13:54.881Z,2.37
2023-01-13T02:16:24.359Z,2.32
2023-01-13T02:19:05.988Z,2.26
2023-01-13T02:22:09.675Z,2.40
2023-01-13T02:25:11.530Z,2.21
2023-01-13T02:27:57.471Z,2.39
2023-01-13T02:30:38.534Z,2.33
2023-01-13T02:33:25.311Z,2.37
2023-01-13T02:36:01.667Z,2.38
2023-01-13T02:38:34.673Z,2.43
2023-01-13T02:41:10.991Z,2.33
2023-01-13T02:43:41.710Z,2.35
2023-01-13T02:46:17.798Z,2.55
2023-01-13T02:48:50.730Z,2.72
2023-01-13T02:51:24.351Z,2.34
2023-01-13T02:53:58.171Z,2.59
2023-01-13T02:56:27.890Z,2.35
2023-01-13T02:58:58.036Z,2.26
2023-01-13T03:01:26.822Z,2.58
2023-01-13T03:03:54.105Z,2.27
2023-01-13T03:06:44.385Z,2.35
2023-01-13T03:09:19.541Z,2.26
2023-01-13T03:12:00.297Z,2.46
2023-01-13T03:14:40.547Z,2.33
2023-01-13T03:17:21.923Z,2.50
2023-01-13T03:20:02.421Z,2.42
2023-01-13T03:22:38.104Z,2.35
2023-01-13T03:25:16.243Z,2.28
2023-01-13T03:27:51.826Z,2.11
2023-01-13T03:30:26.772Z,2.35
2023-01-13T03:33:03.430Z,2.25
2023-01-13T03:35:36.845Z,2.24
2023-01-13T03:38:10.951Z,2.18
2023-01-13T03:40:46.143Z,2.30
2023-01-13T03:43:21.051Z,2.23
2023-01-13T03:45:56.478Z,2.29
2023-01-13T03:48:31.545Z,2.38
2023-01-13T03:51:06.501Z,2.31
2023-01-13T03:53:40.288Z,2.27
2023-01-13T03:56:15.944Z,2.17
2023-01-13T03:58:49.384Z,2.05
2023-01-13T04:01:21.980Z,2.06
2023-01-13T04:03:59.825Z,2.26
2023-01-13T04:06:47.613Z,2.26
2023-01-13T04:09:24.381Z,2.28
2023-01-13T04:12:00.747Z,2.26
2023-01-13T04:14:29.665Z,2.18
2023-01-13T04:16:57.506Z,2.28
2023-01-13T04:19:26.107Z,2.29
2023-01-13T04:21:53.604Z,2.33
2023-01-13T04:24:20.728Z,2.41
2023-01-13T04:26:47.790Z,2.27
2023-01-13T04:29:15.799Z,2.14
2023-01-13T04:31:43.107Z,2.35
2023-01-13T04:34:11.342Z,2.37
2023-01-13T04:36:40.005Z,2.18
2023-01-13T04:39:07.143Z,2.23
2023-01-13T04:41:34.289Z,2.33
2023-01-13T04:44:01.324Z,2.40
2023-01-13T04:46:28.476Z,2.18
2023-01-13T04:48:55.663Z,2.39
2023-01-13T04:51:22.726Z,2.28
2023-01-13T04:53:51.308Z,2.33
2023-01-13T04:56:18.426Z,2.34
2023-01-13T04:58:45.486Z,2.17
2023-01-13T05:01:12.723Z,2.01
2023-01-13T05:03:39.966Z,2.19
2023-01-13T05:06:07.525Z,3.16
2023-01-13T05:08:34.625Z,2.42
2023-01-13T05:11:03.308Z,2.08
2023-01-13T05:13:30.489Z,2.12
2023-01-13T05:16:00.600Z,2.21
2023-01-13T05:18:30.964Z,2.32
2023-01-13T05:20:58.138Z,2.26
2023-01-13T05:23:25.205Z,2.36
2023-01-13T05:25:52.545Z,2.08
2023-01-13T05:28:21.226Z,2.14
2023-01-13T05:30:48.696Z,2.03
2023-01-13T05:33:18.127Z,2.36
2023-01-13T05:35:47.240Z,2.07
2023-01-13T05:38:15.366Z,2.23
2023-01-13T05:40:43.126Z,2.43
2023-01-13T05:43:12.287Z,2.10
2023-01-13T05:45:40.804Z,2.12
2023-01-13T05:48:08.019Z,2.30
2023-01-13T05:50:35.192Z,2.27
2023-01-13T05:53:02.405Z,1.98
2023-01-13T05:55:29.565Z,2.08
2023-01-13T05:57:56.665Z,2.04
2023-01-13T06:00:24.484Z,2.10
2023-01-13T06:02:53.535Z,2.33
2023-01-13T06:05:20.666Z,2.31
2023-01-13T06:07:47.773Z,2.20
2023-01-13T06:10:14.949Z,2.19
2023-01-13T06:12:42.165Z,2.31
2023-01-13T06:15:10.488Z,2.18
2023-01-13T06:17:37.662Z,2.36
2023-01-13T06:20:07.208Z,2.03
2023-01-13T06:22:39.566Z,2.29
2023-01-13T06:25:16.151Z,2.30
2023-01-13T06:27:43.846Z,2.20
2023-01-13T06:30:12.376Z,2.03
2023-01-13T06:32:46.003Z,2.13
2023-01-13T06:35:22.767Z,2.10
2023-01-13T06:37:55.391Z,1.86
2023-01-13T06:40:23.691Z,1.84
2023-01-13T06:42:55.047Z,1.96
2023-01-13T06:45:24.167Z,1.96
2023-01-13T06:47:51.267Z,2.15
2023-01-13T06:50:19.846Z,1.95
2023-01-13T06:52:47.129Z,2.13
2023-01-13T06:55:14.428Z,2.03
2023-01-13T06:57:49.966Z,2.18
2023-01-13T07:00:18.232Z,1.98
2023-01-13T07:02:46.008Z,2.17
2023-01-13T07:05:14.069Z,2.21
2023-01-13T07:07:42.993Z,1.92
2023-01-13T07:10:13.123Z,1.87
2023-01-13T07:12:41.407Z,1.96
2023-01-13T07:15:09.803Z,2.07
2023-01-13T07:17:36.947Z,1.67
2023-01-13T07:20:04.787Z,1.78
2023-01-13T07:22:32.007Z,1.77
2023-01-13T07:25:00.652Z,1.83
2023-01-13T07:27:27.866Z,1.66
2023-01-13T07:29:55.031Z,1.78
2023-01-13T07:32:22.253Z,1.52
2023-01-13T07:34:49.428Z,2.11
2023-01-13T07:37:16.608Z,1.74
2023-01-13T07:39:43.686Z,1.53
2023-01-13T07:42:12.250Z,1.36
2023-01-13T07:44:39.551Z,1.50
2023-01-13T07:47:06.787Z,1.58
2023-01-13T07:49:34.011Z,1.52
2023-01-13T07:52:01.145Z,1.62
2023-01-13T07:54:39.583Z,1.43
2023-01-13T07:57:07.745Z,1.57
2023-01-13T07:59:36.466Z,1.23
2023-01-13T08:02:03.792Z,1.42
2023-01-13T08:04:31.142Z,1.97
2023-01-13T08:06:58.435Z,1.61
2023-01-13T08:09:25.555Z,1.78
2023-01-13T08:11:54.686Z,1.65
2023-01-13T08:14:21.911Z,1.80
2023-01-13T08:16:50.427Z,1.42
2023-01-13T08:19:17.626Z,1.28
2023-01-13T08:21:44.891Z,1.30
2023-01-13T08:24:12.212Z,1.45
2023-01-13T08:26:39.428Z,1.37
2023-01-13T08:29:06.571Z,1.45
2023-01-13T08:31:33.708Z,1.70
2023-01-13T08:34:02.411Z,1.48
2023-01-13T08:36:29.687Z,1.32
2023-01-13T08:38:56.965Z,1.63
2023-01-13T08:41:24.152Z,1.55
2023-01-13T08:43:53.982Z,1.76
2023-01-13T08:46:21.223Z,1.61
2023-01-13T08:48:48.466Z,1.40
2023-01-13T08:51:17.039Z,1.35
2023-01-13T08:53:44.110Z,1.52
2023-01-13T08:56:11.388Z,1.37
2023-01-13T08:58:38.747Z,1.42
2023-01-13T09:01:06.698Z,1.40
2023-01-13T09:03:34.206Z,1.60
2023-01-13T09:06:01.392Z,1.61
2023-01-13T09:08:30.052Z,1.45
2023-01-13T09:10:57.908Z,1.44
2023-01-13T09:13:25.605Z,1.38
2023-01-13T09:15:52.925Z,1.34
2023-01-13T09:18:20.107Z,1.51
2023-01-13T09:20:47.318Z,1.61
2023-01-13T09:23:14.508Z,1.39
2023-01-13T09:25:43.111Z,1.62
2023-01-13T09:28:10.284Z,1.58
2023-01-13T09:30:37.948Z,1.77
2023-01-13T09:33:05.336Z,1.55
2023-01-13T09:35:32.449Z,1.47
2023-01-13T09:37:59.551Z,1.83
2023-01-13T09:40:27.050Z,1.46
2023-01-13T09:43:02.846Z,1.77
2023-01-13T09:45:38.096Z,1.71
2023-01-13T09:48:13.828Z,1.96
2023-01-13T09:50:52.989Z,1.84
2023-01-13T09:53:26.420Z,1.85
2023-01-13T09:55:54.986Z,1.98
2023-01-13T09:58:23.870Z,1.85
2023-01-13T10:01:06.697Z,2.11
2023-01-13T10:03:36.238Z,1.81
2023-01-13T10:06:13.529Z,1.83
2023-01-13T10:08:44.130Z,2.46
2023-01-13T10:11:20.109Z,1.86
2023-01-13T10:13:52.490Z,2.13
2023-01-13T10:16:32.631Z,2.05
2023-01-13T10:19:06.663Z,2.10
2023-01-13T10:22:09.265Z,2.19
2023-01-13T10:25:07.714Z,2.04
2023-01-13T10:27:36.737Z,1.70
2023-01-13T10:30:20.799Z,1.53
2023-01-13T10:32:55.611Z,1.84
2023-01-13T10:35:51.212Z,1.58
2023-01-13T10:38:20.711Z,1.69
2023-01-13T10:40:50.440Z,1.63
2023-01-13T10:43:17.701Z,1.46
2023-01-13T10:45:57.114Z,1.54
2023-01-13T10:48:38.253Z,1.59
2023-01-13T10:51:20.707Z,2.15
2023-01-13T10:54:00.648Z,1.62
2023-01-13T10:56:31.200Z,1.67
2023-01-13T10:59:17.544Z,1.62
2023-01-13T11:01:59.813Z,1.48
2023-01-13T11:04:31.075Z,1.46
2023-01-13T11:06:58.824Z,1.58
2023-01-13T11:09:29.590Z,1.38
2023-01-13T11:11:58.090Z,1.69
2023-01-13T11:14:36.478Z,1.55
2023-01-13T11:17:14.729Z,1.62
2023-01-13T11:19:50.917Z,1.43
2023-01-13T11:22:27.130Z,1.53
2023-01-13T11:25:00.057Z,1.54
2023-01-13T11:27:42.753Z,1.59
2023-01-13T11:30:26.221Z,1.56
2023-01-13T11:33:06.009Z,1.48
2023-01-13T11:35:41.133Z,1.50
2023-01-13T11:38:14.975Z,1.60
2023-01-13T11:40:47.289Z,1.40
2023-01-13T11:43:31.702Z,1.37
2023-01-13T11:46:01.597Z,1.45
2023-01-13T11:48:36.045Z,1.41
2023-01-13T11:51:16.864Z,1.29
2023-01-13T11:54:00.812Z,1.72
2023-01-13T11:56:58.911Z,1.40
2023-01-13T12:00:00.937Z,1.30
2023-01-13T12:02:51.737Z,1.49
2023-01-13T12:05:34.517Z,1.52
2023-01-13T12:08:18.787Z,1.42
2023-01-13T12:11:01.595Z,1.53
2023-01-13T12:13:40.432Z,1.55
2023-01-13T12:16:21.505Z,1.59
2023-01-13T12:19:27.165Z,1.96
2023-01-13T12:22:11.847Z,2.30
2023-01-13T12:24:49.701Z,1.91
2023-01-13T12:27:29.581Z,2.13
2023-01-13T12:30:02.017Z,1.96
2023-01-13T12:32:36.397Z,1.79
2023-01-13T12:35:23.697Z,1.60
2023-01-13T12:38:02.942Z,1.65
2023-01-13T12:40:51.379Z,1.65
2023-01-13T12:43:20.824Z,1.66
2023-01-13T12:45:48.213Z,1.80
2023-01-13T12:48:46.058Z,1.76
2023-01-13T12:51:23.041Z,1.49
2023-01-13T12:53:52.540Z,1.21
2023-01-13T12:56:46.847Z,1.25
2023-01-13T12:59:44.117Z,1.29
2023-01-13T13:02:30.567Z,1.27
2023-01-13T13:05:12.605Z,1.52
2023-01-13T13:07:45.985Z,1.11
2023-01-13T13:10:23.793Z,1.79
2023-01-13T13:13:00.111Z,1.81
2023-01-13T13:15:30.178Z,1.46
2023-01-13T13:18:20.656Z,1.46
2023-01-13T13:21:03.580Z,1.50
2023-01-13T13:23:41.141Z,1.47
2023-01-13T13:26:21.347Z,1.35
2023-01-13T13:29:07.897Z,1.51
2023-01-13T13:32:04.279Z,1.51
2023-01-13T13:34:44.905Z,1.38
2023-01-13T13:37:41.857Z,1.15
2023-01-13T13:40:11.680Z,1.27
2023-01-13T13:42:44.901Z,1.17
2023-01-13T13:45:22.929Z,1.14
2023-01-13T13:47:50.206Z,1.23
2023-01-13T13:50:20.587Z,1.09
2023-01-13T13:52:55.935Z,1.08
2023-01-13T13:55:27.494Z,1.18
2023-01-13T13:57:59.253Z,1.13
2023-01-13T14:00:30.918Z,1.01
2023-01-13T14:03:01.662Z,1.10
2023-01-13T14:05:31.004Z,1.21
2023-01-13T14:08:03.981Z,1.17
2023-01-13T14:10:34.368Z,1.10
2023-01-13T14:13:14.436Z,1.17
2023-01-13T14:15:42.118Z,0.94
2023-01-13T14:18:15.828Z,0.88
2023-01-13T14:20:43.493Z,0.90
2023-01-13T14:23:17.869Z,1.10
2023-01-13T14:25:49.261Z,1.10
2023-01-13T14:28:29.238Z,1.13
2023-01-13T14:30:57.760Z,1.12
2023-01-13T14:33:34.062Z,1.41
2023-01-13T14:36:14.163Z,0.97
2023-01-13T14:38:43.434Z,0.99
2023-01-13T14:41:23.927Z,1.03
2023-01-13T14:43:57.387Z,1.03
2023-01-13T14:46:25.598Z,1.25
2023-01-13T14:49:00.548Z,1.30
2023-01-13T14:51:30.683Z,1.38
2023-01-13T14:53:58.352Z,1.50
2023-01-13T14:56:44.583Z,1.46
2023-01-13T14:59:36.106Z,1.46
2023-01-13T15:02:47.173Z,1.53
2023-01-13T15:05:43.140Z,1.51
2023-01-13T15:08:27.970Z,1.49
2023-01-13T15:10:57.962Z,1.60
2023-01-13T15:13:31.843Z,1.54
2023-01-13T15:16:03.179Z,1.70
2023-01-13T15:18:30.720Z,1.81
2023-01-13T15:20:58.249Z,1.50
2023-01-13T15:23:25.726Z,1.66
2023-01-13T15:25:54.592Z,1.54
2023-01-13T15:28:24.153Z,1.73
2023-01-13T15:30:53.815Z,1.77
2023-01-13T15:33:22.879Z,1.76
2023-01-13T15:35:52.508Z,1.64
2023-01-13T15:38:21.488Z,1.76
2023-01-13T15:40:50.547Z,1.55
2023-01-13T15:43:20.041Z,1.64
2023-01-13T15:45:47.461Z,2.95
2023-01-13T15:48:14.774Z,2.98
2023-01-13T15:50:44.899Z,2.55
2023-01-13T15:53:14.495Z,1.92
2023-01-13T15:55:45.639Z,1.58
2023-01-13T15:58:14.071Z,1.66
2023-01-13T16:00:41.978Z,1.43
2023-01-13T16:03:12.777Z,1.30
2023-01-13T16:05:40.621Z,0.94
2023-01-13T16:08:15.801Z,0.91
2023-01-13T16:10:43.765Z,0.84
2023-01-13T16:13:11.350Z,1.25
2023-01-13T16:15:44.872Z,1.05
2023-01-13T16:18:18.452Z,1.09
2023-01-13T16:20:46.755Z,1.15
2023-01-13T16:23:15.618Z,0.98
2023-01-13T16:25:42.763Z,0.65
2023-01-13T16:28:21.429Z,0.63
2023-01-13T16:30:49.132Z,0.93
2023-01-13T16:33:16.795Z,0.88
2023-01-13T16:36:09.429Z,0.74
2023-01-13T16:38:32.949Z,0.81
2023-01-13T16:41:00.133Z,0.84
2023-01-13T16:43:27.303Z,1.00
2023-01-13T16:45:54.708Z,1.00
2023-01-13T16:48:22.002Z,1.02
2023-01-13T16:50:49.332Z,1.16
2023-01-13T16:53:16.513Z,1.62
2023-01-13T16:55:46.135Z,1.24
2023-01-13T16:58:18.115Z,1.28
2023-01-13T17:00:45.573Z,1.38
2023-01-13T17:03:13.502Z,1.30
2023-01-13T17:05:41.406Z,1.58
2023-01-13T17:08:13.465Z,1.35
2023-01-13T17:10:41.098Z,1.03
2023-01-13T17:13:15.964Z,1.53
2023-01-13T17:15:44.655Z,1.46
2023-01-13T17:18:12.323Z,1.05
2023-01-13T17:20:39.579Z,0.98
2023-01-13T17:23:07.343Z,1.04
2023-01-13T17:25:35.417Z,1.15
2023-01-13T17:28:02.834Z,1.52
2023-01-13T17:30:31.657Z,1.39
2023-01-13T17:32:59.119Z,0.99
2023-01-13T17:35:26.281Z,1.12
2023-01-13T17:37:54.505Z,1.04
2023-01-13T17:40:22.122Z,1.09
2023-01-13T17:42:49.264Z,1.20
2023-01-13T17:45:16.840Z,0.97
2023-01-13T17:47:47.340Z,0.98
2023-01-13T17:50:14.900Z,1.11
2023-01-13T17:52:42.230Z,1.05
2023-01-13T17:55:10.014Z,1.16
2023-01-13T17:57:37.175Z,1.30
2023-01-13T18:00:06.428Z,1.46
2023-01-13T18:02:33.722Z,1.56
2023-01-13T18:05:02.692Z,1.79
2023-01-13T18:07:29.811Z,1.84
2023-01-13T18:09:57.450Z,1.83
2023-01-13T18:12:25.052Z,1.97
2023-01-13T18:14:52.634Z,2.18
2023-01-13T18:17:19.945Z,1.71
2023-01-13T18:19:47.249Z,1.71
2023-01-13T18:22:16.201Z,1.97
2023-01-13T18:24:43.976Z,2.09
2023-01-13T18:27:13.668Z,1.91
2023-01-13T18:29:41.079Z,1.80
2023-01-13T18:32:08.803Z,2.04
2023-01-13T18:34:36.313Z,1.95
2023-01-13T18:37:04.267Z,2.48
2023-01-13T18:39:33.110Z,2.46
2023-01-13T18:42:00.311Z,2.07
2023-01-13T18:44:27.570Z,1.88
2023-01-13T18:46:54.966Z,2.09
2023-01-13T18:49:22.350Z,2.09
2023-01-13T18:51:50.708Z,2.12
2023-01-13T18:54:18.116Z,1.98
2023-01-13T18:56:47.408Z,2.51
2023-01-13T18:59:15.737Z,2.26
2023-01-13T19:01:43.574Z,1.98
2023-01-13T19:04:15.251Z,2.08
2023-01-13T19:06:44.409Z,2.48
2023-01-13T19:09:11.877Z,2.25
2023-01-13T19:11:39.129Z,2.12
2023-01-13T19:14:08.245Z,2.42
2023-01-13T19:16:35.708Z,2.64
2023-01-13T19:19:03.136Z,2.73
2023-01-13T19:21:30.432Z,2.70
2023-01-13T19:23:58.644Z,2.89
2023-01-13T19:26:25.909Z,2.90
2023-01-13T19:28:53.320Z,2.42
2023-01-13T19:31:22.121Z,3.13
2023-01-13T19:33:49.430Z,4.75
2023-01-13T19:36:17.069Z,4.40
2023-01-13T19:38:44.216Z,2.99
2023-01-13T19:41:12.808Z,2.55
2023-01-13T19:43:40.089Z,2.08
2023-01-13T19:46:07.502Z,1.83
2023-01-13T19:48:36.713Z,1.66
2023-01-13T19:51:04.974Z,2.06
2023-01-13T19:53:33.392Z,2.36
2023-01-13T19:56:02.154Z,2.51
2023-01-13T19:58:29.934Z,2.64
2023-01-13T20:00:57.338Z,2.60
2023-01-13T20:03:26.513Z,2.91
2023-01-13T20:05:55.819Z,2.96
2023-01-13T20:08:26.754Z,2.68
2023-01-13T20:10:54.113Z,2.75
2023-01-13T20:13:21.331Z,2.52
2023-01-13T20:15:49.107Z,2.83
2023-01-13T20:18:16.373Z,3.11
2023-01-13T20:20:43.536Z,3.41
2023-01-13T20:23:12.172Z,4.37
2023-01-13T20:25:42.450Z,3.85
2023-01-13T20:28:09.991Z,3.61
2023-01-13T20:30:40.333Z,3.76
2023-01-13T20:33:08.450Z,4.01
2023-01-13T20:35:36.032Z,4.33
2023-01-13T20:38:03.509Z,4.61
2023-01-13T20:40:39.073Z,4.14
2023-01-13T20:43:06.940Z,3.31
2023-01-13T20:45:34.406Z,4.60
2023-01-13T20:48:01.587Z,4.98
2023-01-13T20:50:28.933Z,4.67
2023-01-13T20:52:56.253Z,3.04
2023-01-13T20:55:23.760Z,3.00
2023-01-13T20:57:52.493Z,2.84
2023-01-13T21:00:20.674Z,2.64
2023-01-13T21:02:47.825Z,2.47
2023-01-13T21:05:15.671Z,2.73
2023-01-13T21:07:43.033Z,2.80
2023-01-13T21:10:11.071Z,2.55
2023-01-13T21:12:38.273Z,2.70
2023-01-13T21:15:10.446Z,2.86
2023-01-13T21:17:37.645Z,2.46
2023-01-13T21:20:07.746Z,2.64
2023-01-13T21:22:36.762Z,3.17
2023-01-13T21:25:06.318Z,2.39
2023-01-13T21:27:33.597Z,2.72
2023-01-13T21:30:00.864Z,2.34
2023-01-13T21:32:29.522Z,2.45
2023-01-13T21:34:56.919Z,2.40
2023-01-13T21:37:24.354Z,1.86
2023-01-13T21:39:53.680Z,2.06
2023-01-13T21:42:22.318Z,1.75
2023-01-13T21:44:49.616Z,1.73
2023-01-13T21:47:20.761Z,2.14
2023-01-13T21:49:49.795Z,3.57
2023-01-13T21:52:17.268Z,3.21
2023-01-13T21:54:44.655Z,2.34
2023-01-13T21:57:11.976Z,1.97
2023-01-13T21:59:39.674Z,2.38
2023-01-13T22:02:24.041Z,2.77
2023-01-13T22:04:54.914Z,2.99
2023-01-13T22:07:22.284Z,2.74
2023-01-13T22:09:49.614Z,2.22
2023-01-13T22:12:16.937Z,2.29
2023-01-13T22:14:44.350Z,3.40
2023-01-13T22:17:14.520Z,2.65
2023-01-13T22:19:41.957Z,2.73
2023-01-13T22:22:10.815Z,2.76
2023-01-13T22:24:38.094Z,2.73
2023-01-13T22:27:05.457Z,2.56
2023-01-13T22:29:33.019Z,2.95
2023-01-13T22:32:00.339Z,3.12
2023-01-13T22:34:27.725Z,3.38
2023-01-13T22:36:55.180Z,3.39
2023-01-13T22:39:24.274Z,3.28
2023-01-13T22:41:51.897Z,3.18
2023-01-13T22:44:19.915Z,3.48
2023-01-13T22:46:47.975Z,3.04
2023-01-13T22:49:16.939Z,3.37
2023-01-13T22:51:45.961Z,3.24
2023-01-13T22:54:13.960Z,3.29
2023-01-13T22:56:42.696Z,3.36
2023-01-13T22:59:12.954Z,3.12
2023-01-13T23:01:40.936Z,2.90
2023-01-13T23:04:11.465Z,3.32
2023-01-13T23:06:38.979Z,3.30
2023-01-13T23:09:07.139Z,3.02
2023-01-13T23:11:34.434Z,2.98
2023-01-13T23:14:05.916Z,3.48
2023-01-13T23:16:35.883Z,3.30
2023-01-13T23:19:04.340Z,2.71
2023-01-13T23:21:34.457Z,2.59
2023-01-13T23:24:02.157Z,2.79
2023-01-13T23:26:31.273Z,3.47
2023-01-13T23:28:59.755Z,3.17
2023-01-13T23:31:28.996Z,3.25
2023-01-13T23:33:56.309Z,2.74
2023-01-13T23:36:26.476Z,3.20
2023-01-13T23:38:53.743Z,2.83
2023-01-13T23:41:23.360Z,3.01
2023-01-13T23:43:51.923Z,2.79
2023-01-13T23:46:20.667Z,2.89
2023-01-13T23:48:50.635Z,3.21
2023-01-13T23:51:19.095Z,3.20
2023-01-13T23:53:48.268Z,3.24
2023-01-13T23:56:17.884Z,3.11
2023-01-13T23:58:45.584Z,2.74
